Time;durP1;ratioP1;P1;durP2;ratioP2;P2;SDS_P1;SDS_P2;PMS_P1;PMS_P2;Temp;Humidity;BMP_temperature;BMP_pressure;BME280_temperature;BME280_humidity;BME280_pressure;Samples;Min_cycle;Max_cycle;Signal;HPM_P1;HPM_P2
2022/06/27 00:00:01;;;;;;;;;;;;;;;17.75;80.48;101531.97;5073339;28;19913;-37
2022/06/27 00:02:26;;;;;;;;;;;;;;;17.70;80.64;101529.16;5073134;28;19917;-37
2022/06/27 00:04:51;;;;;;;;;;;;;;;17.67;80.09;101537.91;5073631;28;20009;-37
2022/06/27 00:07:17;;;;;;;;;;;;;;;17.67;79.67;101540.66;5073269;28;19919;-37
2022/06/27 00:09:42;;;;;;;;;;;;;;;17.68;79.73;101542.28;5073436;28;20420;-37
2022/06/27 00:12:08;;;;;;;;;;;;;;;17.62;82.56;101532.41;5073763;28;19949;-37
2022/06/27 00:14:33;;;;;;;;;;;;;;;17.57;81.44;101529.63;5072927;28;20280;-37
2022/06/27 00:16:59;;;;;;;;;;;;;;;17.56;80.81;101533.44;5073714;28;19912;-37
2022/06/27 00:19:24;;;;;;;;;;;;;;;17.58;80.61;101536.75;5073101;28;19916;-36
2022/06/27 00:21:49;;;;;;;;;;;;;;;17.59;80.45;101538.38;5072486;28;19913;-37
2022/06/27 00:24:15;;;;;;;;;;;;;;;17.60;79.71;101540.03;5073337;28;19920;-37
2022/06/27 00:26:40;;;;;;;;;;;;;;;17.61;80.12;101538.94;5073674;28;19912;-37
2022/06/27 00:29:05;;;;;;;;;;;;;;;17.60;80.22;101544.69;5073027;28;19912;-37
2022/06/27 00:31:31;;;;;;;;;;;;;;;17.61;79.97;101538.94;5073306;28;19999;-37
2022/06/27 00:33:56;;;;;;;;;;;;;;;17.63;80.19;101549.63;5073675;28;19913;-36
2022/06/27 00:36:21;;;;;;;;;;;;;;;17.62;79.91;101554.28;5073472;28;19920;-37
2022/06/27 00:38:46;;;;;;;;;;;;;;;17.63;79.90;101555.94;5072931;28;20256;-37
2022/06/27 00:41:11;;;;;;;;;;;;;;;17.64;80.26;101557.56;5073782;28;19912;-37
2022/06/27 00:43:37;;;;;;;;;;;;;;;17.63;80.50;101555.09;5076896;28;20315;-36
2022/06/27 00:46:02;;;;;;;;;;;;;;;17.62;80.55;101557.03;5076781;28;20357;-36
2022/06/27 00:48:27;;;;;;;;;;;;;;;17.59;80.51;101557.53;5076733;28;19920;-37
2022/06/27 00:50:52;;;;;;;;;;;;;;;17.61;80.27;101555.34;5077099;28;19912;-37
2022/06/27 00:53:18;;;;;;;;;;;;;;;17.60;80.59;101564.66;5076427;28;19912;-37
2022/06/27 00:55:44;;;;;;;;;;;;;;;17.58;80.71;101566.81;5077063;28;19916;-37
2022/06/27 00:58:09;;;;;;;;;;;;;;;17.58;80.61;101572.31;5076535;28;20372;-37
2022/06/27 01:00:35;;;;;;;;;;;;;;;17.58;80.79;101569.56;5077045;28;19913;-37
2022/06/27 01:03:00;;;;;;;;;;;;;;;17.57;80.51;101567.91;5077055;28;19975;-37
2022/06/27 01:05:25;;;;;;;;;;;;;;;17.58;80.76;101566.81;5076465;28;19912;-37
2022/06/27 01:07:51;;;;;;;;;;;;;;;17.59;80.62;101564.91;5076036;28;19913;-37
2022/06/27 01:10:16;;;;;;;;;;;;;;;17.59;80.67;101564.91;5076296;28;19912;-37
2022/06/27 01:12:41;;;;;;;;;;;;;;;17.58;81.36;101569.56;5076060;28;19913;-37
2022/06/27 01:15:07;;;;;;;;;;;;;;;17.57;81.09;101564.34;5076316;28;19965;-36
2022/06/27 01:17:33;;;;;;;;;;;;;;;17.59;81.05;101571.22;5076984;28;19913;-37
2022/06/27 01:19:58;;;;;;;;;;;;;;;17.59;81.03;101571.22;5076277;28;20388;-37
2022/06/27 01:22:23;;;;;;;;;;;;;;;17.60;81.24;101575.59;5076227;28;20430;-37
2022/06/27 01:24:49;;;;;;;;;;;;;;;17.60;80.88;101567.38;5076653;28;19913;-37
2022/06/27 01:27:15;;;;;;;;;;;;;;;17.60;81.18;101575.59;5076186;28;20297;-37
2022/06/27 01:29:40;;;;;;;;;;;;;;;17.62;81.30;101578.91;5076242;28;20383;-37
2022/06/27 01:32:05;;;;;;;;;;;;;;;17.63;81.38;101574.25;5075721;28;19956;-37
2022/06/27 01:34:31;;;;;;;;;;;;;;;17.63;81.15;101572.34;5075949;28;19912;-37
2022/06/27 01:36:56;;;;;;;;;;;;;;;17.62;81.21;101565.22;5075026;28;19919;-37
2022/06/27 01:39:23;;;;;;;;;;;;;;;17.63;81.32;101557.84;5075587;28;19995;-37
2022/06/27 01:41:49;;;;;;;;;;;;;;;17.60;81.12;101548.22;5076620;28;20262;-37
2022/06/27 01:44:15;;;;;;;;;;;;;;;17.61;81.21;101552.63;5075908;28;20003;-37
2022/06/27 01:46:45;;;;;;;;;;;;;;;17.62;81.08;101546.09;5075813;28;20349;-37
2022/06/27 01:49:12;;;;;;;;;;;;;;;17.62;81.00;101537.88;5075567;28;19912;-37
2022/06/27 01:51:37;;;;;;;;;;;;;;;17.61;81.33;101529.91;5075936;28;19912;-36
2022/06/27 01:54:03;;;;;;;;;;;;;;;17.61;81.61;101528.00;5107319;28;19912;-37
2022/06/27 01:56:29;;;;;;;;;;;;;;;17.60;81.19;101525.53;5075644;28;20360;-37
2022/06/27 01:58:57;;;;;;;;;;;;;;;17.58;81.59;101528.53;5075257;28;20018;-37
2022/06/27 02:01:23;;;;;;;;;;;;;;;17.59;81.53;101526.63;5075791;28;19912;-37
2022/06/27 02:03:48;;;;;;;;;;;;;;;17.57;81.74;101521.44;5075057;28;19981;-37
2022/06/27 02:06:13;;;;;;;;;;;;;;;17.57;81.53;101512.38;5075376;28;20372;-37
2022/06/27 02:08:41;;;;;;;;;;;;;;;17.55;82.34;101509.09;5075227;28;19912;-37
2022/06/27 02:11:07;;;;;;;;;;;;;;;17.50;82.27;101518.06;5075627;28;20367;-36
2022/06/27 02:13:32;;;;;;;;;;;;;;;17.49;81.72;101517.25;5074912;28;19912;-36
2022/06/27 02:16:06;;;;;;;;;;;;;;;17.49;82.14;101517.25;5075196;28;20015;-37
2022/06/27 02:18:32;;;;;;;;;;;;;;;17.49;81.80;101511.78;5075115;28;19971;-37
2022/06/27 02:20:58;;;;;;;;;;;;;;;17.49;82.19;101510.97;5075799;28;19919;-37
2022/06/27 02:23:23;;;;;;;;;;;;;;;17.49;82.26;101510.97;5075300;28;20316;-37
2022/06/27 02:25:49;;;;;;;;;;;;;;;17.47;82.02;101516.69;5075739;28;20356;-37
2022/06/27 02:28:15;;;;;;;;;;;;;;;17.45;82.27;101516.13;5075636;28;19986;-37
2022/06/27 02:30:40;;;;;;;;;;;;;;;17.38;84.96;101496.38;5074883;28;19919;-37
2022/06/27 02:33:06;;;;;;;;;;;;;;;17.29;84.35;101494.41;5075647;28;19912;-37
2022/06/27 02:35:31;;;;;;;;;;;;;;;17.22;84.31;101489.94;5074745;28;20010;-38
2022/06/27 02:37:57;;;;;;;;;;;;;;;17.21;83.77;101493.75;5075258;28;20006;-37
2022/06/27 02:40:22;;;;;;;;;;;;;;;17.21;83.56;101488.31;5074664;28;19923;-37
2022/06/27 02:42:49;;;;;;;;;;;;;;;17.23;83.73;101496.25;5074902;28;20303;-37
2022/06/27 02:45:15;;;;;;;;;;;;;;;17.27;83.63;101499.28;5074258;28;19917;-36
2022/06/27 02:47:43;;;;;;;;;;;;;;;17.28;85.66;101503.69;5074186;28;20301;-37
2022/06/27 02:50:08;;;;;;;;;;;;;;;17.19;85.61;101489.66;5074433;28;19957;-37
2022/06/27 02:52:35;;;;;;;;;;;;;;;17.13;84.78;101480.59;5074643;28;19995;-37
2022/06/27 02:55:07;;;;;;;;;;;;;;;17.10;84.58;101475.63;5075203;28;19919;-37
2022/06/27 02:57:38;;;;;;;;;;;;;;;17.07;84.64;101469.84;5074787;28;20054;-37
2022/06/27 03:00:05;;;;;;;;;;;;;;;17.05;84.22;101472.03;5074225;28;19919;-37
2022/06/27 03:02:30;;;;;;;;;;;;;;;17.04;84.55;101471.22;5074735;28;20325;-37
2022/06/27 03:04:56;;;;;;;;;;;;;;;17.02;83.63;101467.91;5074058;28;19917;-37
2022/06/27 03:07:21;;;;;;;;;;;;;;;17.01;83.37;101465.44;5074337;28;19912;-36
2022/06/27 03:09:47;;;;;;;;;;;;;;;16.97;86.00;101459.66;5073670;28;20008;-37
2022/06/27 03:12:12;;;;;;;;;;;;;;;16.86;86.24;101458.75;5074302;28;20272;-37
2022/06/27 03:14:37;;;;;;;;;;;;;;;16.80;85.10;101454.31;5074250;28;20281;-37
2022/06/27 03:17:03;;;;;;;;;;;;;;;16.80;84.42;101454.31;5073654;28;20019;-37
2022/06/27 03:19:28;;;;;;;;;;;;;;;16.77;84.40;101452.09;5073859;28;19958;-37
2022/06/27 03:21:54;;;;;;;;;;;;;;;16.74;84.16;101460.81;5073878;28;20431;-37
2022/06/27 03:24:20;;;;;;;;;;;;;;;16.71;83.87;101456.69;5073982;28;19920;-37
2022/06/27 03:26:45;;;;;;;;;;;;;;;16.71;83.83;101459.41;5073811;28;19912;-37
2022/06/27 03:29:10;;;;;;;;;;;;;;;16.70;83.78;101457.72;5073600;28;20333;-37
2022/06/27 03:31:35;;;;;;;;;;;;;;;16.70;83.75;101459.66;5074479;28;19912;-36
2022/06/27 03:34:01;;;;;;;;;;;;;;;16.67;83.90;101455.50;5073647;28;20256;-37
2022/06/27 03:36:26;;;;;;;;;;;;;;;16.61;84.08;101447.53;5073552;28;19920;-36
2022/06/27 03:38:51;;;;;;;;;;;;;;;16.66;83.93;101459.31;5074279;28;19913;-36
2022/06/27 03:41:17;;;;;;;;;;;;;;;16.67;84.00;101449.22;5073443;28;19919;-37
2022/06/27 03:43:42;;;;;;;;;;;;;;;16.64;84.07;101449.72;5073127;28;19912;-37
2022/06/27 03:46:08;;;;;;;;;;;;;;;16.61;83.64;101456.53;5073692;28;19919;-37
2022/06/27 03:51:17;;;;;;;;;;;;;;;16.58;83.73;101456.22;5073180;28;19918;-37
2022/06/27 03:53:42;;;;;;;;;;;;;;;16.57;84.00;101454.56;5073087;28;19916;-36
2022/06/27 03:56:07;;;;;;;;;;;;;;;16.54;84.28;101453.16;5073791;28;20013;-37
2022/06/27 03:58:32;;;;;;;;;;;;;;;16.51;84.13;101458.34;5073362;28;19966;-37
2022/06/27 04:00:58;;;;;;;;;;;;;;;16.48;84.26;101462.38;5074024;28;19913;-37
2022/06/27 04:03:23;;;;;;;;;;;;;;;16.45;84.29;101454.72;5073791;28;19916;-37
2022/06/27 04:05:48;;;;;;;;;;;;;;;16.43;84.23;101473.25;5073985;28;19918;-37
2022/06/27 04:08:14;;;;;;;;;;;;;;;16.41;84.25;101483.59;5073340;28;19916;-37
2022/06/27 04:10:39;;;;;;;;;;;;;;;16.39;84.79;101483.84;5072991;28;19912;-37
2022/06/27 04:13:04;;;;;;;;;;;;;;;16.39;84.83;101474.81;5073991;28;19916;-37
2022/06/27 04:15:29;;;;;;;;;;;;;;;16.41;85.14;101470.78;5074668;28;19919;-37
2022/06/27 04:17:55;;;;;;;;;;;;;;;16.45;85.38;101465.66;5080349;28;19912;-36
2022/06/27 04:20:20;;;;;;;;;;;;;;;16.50;85.08;101475.81;5080059;28;20352;-36
2022/06/27 04:22:45;;;;;;;;;;;;;;;16.56;85.06;101474.78;5080014;28;19919;-36
2022/06/27 04:25:11;;;;;;;;;;;;;;;16.60;85.90;101473.19;5080503;28;19958;-37
2022/06/27 04:27:36;;;;;;;;;;;;;;;16.66;85.84;101472.97;5080121;28;19912;-36
2022/06/27 04:30:01;;;;;;;;;;;;;;;16.76;87.09;101453.19;5079730;28;19912;-37
2022/06/27 04:32:28;;;;;;;;;;;;;;;16.82;86.53;101434.94;5079630;28;20280;-37
2022/06/27 04:34:53;;;;;;;;;;;;;;;16.90;85.87;101434.47;5079621;28;20279;-36
2022/06/27 04:37:18;;;;;;;;;;;;;;;16.99;85.86;101436.47;5079623;28;19922;-37
2022/06/27 04:39:44;;;;;;;;;;;;;;;17.11;87.80;101435.47;5079645;28;19916;-37
2022/06/27 04:42:09;;;;;;;;;;;;;;;17.07;88.55;101416.03;5079842;28;19981;-37
2022/06/27 04:44:40;;;;;;;;;;;;;;;17.06;87.32;101406.19;5079790;28;19912;-37
2022/06/27 04:47:08;;;;;;;;;;;;;;;17.07;86.72;101399.63;5079288;28;19916;-36
2022/06/27 04:49:36;;;;;;;;;;;;;;;17.10;87.16;101403.78;5079467;28;20011;-38
2022/06/27 04:52:01;;;;;;;;;;;;;;;17.12;87.69;101416.06;5080299;28;20233;-37
2022/06/27 04:54:27;;;;;;;;;;;;;;;17.13;86.86;101409.53;5079469;28;19923;-36
2022/06/27 04:56:53;;;;;;;;;;;;;;;17.16;87.08;101413.66;5079325;28;19912;-36
2022/06/27 04:59:20;;;;;;;;;;;;;;;17.18;86.49;101416.97;5079217;28;19919;-37
2022/06/27 05:01:45;;;;;;;;;;;;;;;17.19;86.43;101435.00;5080067;28;20349;-37
2022/06/27 05:04:11;;;;;;;;;;;;;;;17.21;86.18;101441.00;5079207;28;19913;-37
2022/06/27 05:06:36;;;;;;;;;;;;;;;17.23;86.49;101433.41;5079942;28;20090;-37
2022/06/27 05:09:01;;;;;;;;;;;;;;;17.22;85.87;101429.81;5079080;28;19954;-37
2022/06/27 05:11:26;;;;;;;;;;;;;;;17.23;85.76;101419.72;5079665;28;19957;-37
2022/06/27 05:13:52;;;;;;;;;;;;;;;17.21;86.48;101422.72;5079485;28;20229;-37
2022/06/27 05:16:17;;;;;;;;;;;;;;;17.16;86.52;101409.00;5079464;28;19913;-36
2022/06/27 05:18:42;;;;;;;;;;;;;;;17.13;86.77;101415.00;5079369;28;19912;-37
2022/06/27 05:21:08;;;;;;;;;;;;;;;17.12;86.86;101412.53;5079733;28;19913;-37
2022/06/27 05:23:34;;;;;;;;;;;;;;;17.11;86.50;101416.34;5078935;28;19912;-37
2022/06/27 05:26:01;;;;;;;;;;;;;;;17.09;86.83;101421.25;5079789;28;19912;-37
2022/06/27 05:28:26;;;;;;;;;;;;;;;17.10;85.96;101428.38;5076896;28;19919;-36
2022/06/27 05:30:52;;;;;;;;;;;;;;;17.13;85.73;101430.56;5076115;28;20014;-37
2022/06/27 05:33:17;;;;;;;;;;;;;;;17.15;86.19;101426.50;5076811;28;20007;-37
2022/06/27 05:35:42;;;;;;;;;;;;;;;17.19;85.88;101424.06;5075723;28;20019;-36
2022/06/27 05:38:07;;;;;;;;;;;;;;;17.20;85.46;101426.53;5076652;28;19919;-36
2022/06/27 05:40:34;;;;;;;;;;;;;;;17.20;85.71;101453.03;5076360;28;20011;-36
2022/06/27 05:42:59;;;;;;;;;;;;;;;17.20;85.68;101473.00;5076354;28;19912;-36
2022/06/27 05:45:25;;;;;;;;;;;;;;;17.23;85.68;101496.25;5076002;28;20268;-37
2022/06/27 05:47:57;;;;;;;;;;;;;;;17.28;85.69;101514.63;5076302;28;19920;-36
2022/06/27 05:50:23;;;;;;;;;;;;;;;17.33;85.83;101520.94;5075339;28;20368;-36
2022/06/27 05:52:49;;;;;;;;;;;;;;;17.39;85.47;101516.34;5075842;28;19912;-37
2022/06/27 05:55:14;;;;;;;;;;;;;;;17.42;86.40;101526.75;5074640;28;20318;-36
2022/06/27 05:57:41;;;;;;;;;;;;;;;17.45;85.83;101540.72;5076017;28;20402;-37
2022/06/27 06:00:08;;;;;;;;;;;;;;;17.49;85.80;101554.72;5075458;28;19912;-36
2022/06/27 06:02:33;;;;;;;;;;;;;;;17.49;87.09;101550.06;5076315;28;20003;-37
2022/06/27 06:04:59;;;;;;;;;;;;;;;17.50;86.01;101548.97;5075941;28;19955;-37
2022/06/27 06:07:25;;;;;;;;;;;;;;;17.50;85.74;101548.16;5075452;28;19922;-37
2022/06/27 06:09:51;;;;;;;;;;;;;;;17.51;87.10;101547.06;5075770;28;20007;-36
2022/06/27 06:12:18;;;;;;;;;;;;;;;17.49;86.46;101530.94;5076001;28;19912;-36
2022/06/27 06:14:44;;;;;;;;;;;;;;;17.48;86.53;101523.00;5075155;28;19919;-37
2022/06/27 06:17:10;;;;;;;;;;;;;;;17.50;85.87;101518.06;5075276;28;19912;-37
2022/06/27 06:19:35;;;;;;;;;;;;;;;17.52;85.91;101521.41;5075363;28;19919;-37
2022/06/27 06:22:00;;;;;;;;;;;;;;;17.55;86.13;101531.78;5075100;28;19920;-37
2022/06/27 06:24:26;;;;;;;;;;;;;;;17.56;85.90;101517.03;5075436;28;19912;-37
2022/06/27 06:26:55;;;;;;;;;;;;;;;17.59;85.89;101535.66;5075199;28;19913;-36
2022/06/27 06:29:22;;;;;;;;;;;;;;;17.60;85.29;101540.03;5075028;28;19913;-37
2022/06/27 06:31:48;;;;;;;;;;;;;;;17.62;85.39;101551.56;5075429;28;19912;-37
2022/06/27 06:34:14;;;;;;;;;;;;;;;17.64;85.86;101549.38;5075311;28;19919;-37
2022/06/27 06:36:39;;;;;;;;;;;;;;;17.65;85.57;101553.75;5074690;28;19912;-36
2022/06/27 06:39:07;;;;;;;;;;;;;;;17.67;85.65;101543.38;5074262;28;20118;-37
2022/06/27 06:41:35;;;;;;;;;;;;;;;17.70;85.53;101550.22;5075202;28;19956;-37
2022/06/27 06:44:00;;;;;;;;;;;;;;;17.72;85.59;101542.59;5074572;28;19919;-37
2022/06/27 06:46:28;;;;;;;;;;;;;;;17.74;85.48;101533.06;5075016;28;20014;-37
2022/06/27 06:49:02;;;;;;;;;;;;;;;17.77;85.99;101522.72;5074552;28;19912;-37
2022/06/27 06:51:29;;;;;;;;;;;;;;;17.77;85.67;101509.03;5074743;28;19965;-36
2022/06/27 06:53:54;;;;;;;;;;;;;;;17.77;85.67;101495.34;5074243;28;20053;-37
2022/06/27 06:56:20;;;;;;;;;;;;;;;17.80;85.52;101478.41;5074280;28;19912;-37
2022/06/27 06:58:45;;;;;;;;;;;;;;;17.82;85.55;101487.19;5074296;28;19913;-37
2022/06/27 07:01:11;;;;;;;;;;;;;;;17.82;85.97;101473.50;5074230;28;20384;-37
2022/06/27 07:03:36;;;;;;;;;;;;;;;17.86;85.69;101466.38;5074563;28;19916;-37
2022/06/27 07:06:03;;;;;;;;;;;;;;;17.90;85.58;101473.81;5074644;28;19935;-37
2022/06/27 07:08:30;;;;;;;;;;;;;;;17.96;85.59;101477.41;5074195;28;19916;-37
2022/06/27 07:10:56;;;;;;;;;;;;;;;18.05;85.16;101491.41;5073982;28;20384;-37
2022/06/27 07:13:23;;;;;;;;;;;;;;;18.10;85.68;101488.69;5074025;28;20023;-37
2022/06/27 07:15:48;;;;;;;;;;;;;;;18.14;85.81;101473.38;5074303;28;19951;-37
2022/06/27 07:18:14;;;;;;;;;;;;;;;18.21;85.57;101463.84;5074019;28;20397;-37
2022/06/27 07:20:39;;;;;;;;;;;;;;;18.23;85.33;101461.66;5074064;28;19918;-37
2022/06/27 07:23:06;;;;;;;;;;;;;;;18.25;84.84;101489.63;5074271;28;19927;-37
2022/06/27 07:25:33;;;;;;;;;;;;;;;18.31;84.64;101508.81;5073877;28;20022;-37
2022/06/27 07:27:59;;;;;;;;;;;;;;;18.37;84.51;101500.31;5073820;28;20007;-37
2022/06/27 07:30:24;;;;;;;;;;;;;;;18.45;84.45;101520.91;5074974;28;19963;-37
2022/06/27 07:32:49;;;;;;;;;;;;;;;18.52;84.31;101529.69;5074151;28;19916;-37
2022/06/27 07:35:16;;;;;;;;;;;;;;;18.61;84.16;101536.31;5073457;28;19928;-37
2022/06/27 07:37:48;;;;;;;;;;;;;;;18.72;83.81;101527.06;5074244;28;19912;-37
2022/06/27 07:40:13;;;;;;;;;;;;;;;18.86;83.52;101518.34;5073675;28;19912;-37
2022/06/27 07:42:39;;;;;;;;;;;;;;;19.00;83.38;101525.78;5073563;28;19976;-37
2022/06/27 07:45:06;;;;;;;;;;;;;;;19.14;83.23;101523.34;5073900;28;19916;-37
2022/06/27 07:47:32;;;;;;;;;;;;;;;19.27;82.62;101530.19;5073824;28;19921;-37
2022/06/27 07:49:57;;;;;;;;;;;;;;;19.36;82.76;101541.44;5073346;28;20287;-37
2022/06/27 07:52:22;;;;;;;;;;;;;;;19.43;82.63;101529.13;5072515;28;20046;-37
2022/06/27 07:54:48;;;;;;;;;;;;;;;19.46;82.54;101533.22;5073470;28;19919;-37
2022/06/27 07:57:14;;;;;;;;;;;;;;;19.48;82.75;101545.59;5073395;28;19912;-37
2022/06/27 07:59:40;;;;;;;;;;;;;;;19.47;82.21;101546.69;5073345;28;19918;-37
2022/06/27 08:02:06;;;;;;;;;;;;;;;19.44;82.31;101551.88;5073516;28;19920;-37
2022/06/27 08:04:32;;;;;;;;;;;;;;;19.40;82.11;101551.59;5074122;28;19919;-37
2022/06/27 08:06:57;;;;;;;;;;;;;;;19.37;82.36;101560.38;5073054;28;20206;-37
2022/06/27 08:09:22;;;;;;;;;;;;;;;19.36;82.10;101572.44;5072855;28;19917;-37
2022/06/27 08:11:48;;;;;;;;;;;;;;;19.35;82.35;101564.50;5073861;28;19917;-36
2022/06/27 08:14:16;;;;;;;;;;;;;;;19.38;82.39;101550.25;5073666;28;20372;-37
2022/06/27 08:16:42;;;;;;;;;;;;;;;19.40;82.33;101562.56;5072498;28;19954;-37
2022/06/27 08:19:07;;;;;;;;;;;;;;;19.44;82.16;101568.34;5073182;28;19951;-37
2022/06/27 08:21:35;;;;;;;;;;;;;;;19.46;82.11;101561.47;5073193;28;19912;-37
2022/06/27 08:24:03;;;;;;;;;;;;;;;19.45;81.88;101548.03;5073084;28;19912;-37
2022/06/27 08:26:29;;;;;;;;;;;;;;;19.48;82.02;101544.75;5073636;28;19913;-36
2022/06/27 08:28:56;;;;;;;;;;;;;;;19.53;82.00;101556.56;5073239;28;19923;-36
2022/06/27 08:31:21;;;;;;;;;;;;;;;19.56;81.93;101558.72;5073892;28;20005;-36
2022/06/27 08:33:47;;;;;;;;;;;;;;;19.57;82.02;101584.28;5073098;28;19967;-36
2022/06/27 08:36:14;;;;;;;;;;;;;;;19.55;82.05;101591.94;5073123;28;19913;-36
2022/06/27 08:38:42;;;;;;;;;;;;;;;19.52;82.09;101586.97;5073266;28;19919;-37
2022/06/27 08:41:08;;;;;;;;;;;;;;;19.48;81.89;101591.38;5073184;28;20015;-37
2022/06/27 08:43:34;;;;;;;;;;;;;;;19.46;82.05;101596.31;5072867;28;19952;-37
2022/06/27 08:45:59;;;;;;;;;;;;;;;19.42;81.73;101593.31;5073241;28;19958;-37
2022/06/27 08:48:25;;;;;;;;;;;;;;;19.38;81.78;101588.63;5073945;28;19962;-37
2022/06/27 08:50:51;;;;;;;;;;;;;;;19.35;82.03;101587.25;5073436;28;19922;-37
2022/06/27 08:53:17;;;;;;;;;;;;;;;19.33;81.89;101594.94;5072903;28;19913;-37
2022/06/27 08:55:46;;;;;;;;;;;;;;;19.33;82.13;101583.16;5073680;28;19939;-36
2022/06/27 08:58:12;;;;;;;;;;;;;;;19.33;81.84;101583.16;5073670;28;19912;-36
2022/06/27 09:00:40;;;;;;;;;;;;;;;19.36;82.26;101582.59;5072562;28;20296;-37
2022/06/27 09:03:06;;;;;;;;;;;;;;;19.37;82.09;101585.03;5075465;28;20026;-37
2022/06/27 09:05:32;;;;;;;;;;;;;;;19.37;82.38;101589.72;5076601;28;20340;-37
2022/06/27 09:08:01;;;;;;;;;;;;;;;19.41;82.29;101596.31;5076101;28;19916;-37
2022/06/27 09:10:26;;;;;;;;;;;;;;;19.46;82.00;101607.28;5076160;28;19913;-37
2022/06/27 09:12:56;;;;;;;;;;;;;;;19.49;81.86;101615.78;5076974;28;19919;-37
2022/06/27 09:15:24;;;;;;;;;;;;;;;19.57;82.00;101608.97;5076070;28;19966;-37
2022/06/27 09:18:00;;;;;;;;;;;;;;;19.63;82.12;101594.19;5076699;28;19982;-37
2022/06/27 09:20:44;;;;;;;;;;;;;;;19.72;81.97;101598.03;5076235;28;19920;-37
2022/06/27 09:23:25;;;;;;;;;;;;;;;19.78;81.63;101580.47;5076820;28;19912;-37
2022/06/27 09:25:56;;;;;;;;;;;;;;;19.89;81.17;101584.00;5076122;28;19912;-37
2022/06/27 09:28:23;;;;;;;;;;;;;;;19.99;81.32;101592.22;5076865;28;19913;-37
2022/06/27 09:30:49;;;;;;;;;;;;;;;20.11;79.92;101600.19;5076071;28;19932;-37
2022/06/27 09:33:15;;;;;;;;;;;;;;;20.16;79.71;101605.69;5076488;28;19981;-37
2022/06/27 09:35:41;;;;;;;;;;;;;;;20.21;79.69;101604.84;5075779;28;19913;-37
2022/06/27 09:38:07;;;;;;;;;;;;;;;20.23;79.41;101606.22;5076536;28;20268;-37
2022/06/27 09:40:34;;;;;;;;;;;;;;;20.26;79.03;101608.41;5075941;28;20364;-37
2022/06/27 09:42:59;;;;;;;;;;;;;;;20.31;79.16;101602.09;5075857;28;19913;-37
2022/06/27 09:45:26;;;;;;;;;;;;;;;20.33;76.51;101600.69;5076385;28;19913;-37
2022/06/27 09:47:58;;;;;;;;;;;;;;;20.32;77.48;101593.56;5075739;28;20284;-37
2022/06/27 09:50:24;;;;;;;;;;;;;;;20.38;78.15;101599.03;5076054;28;20357;-38
2022/06/27 09:52:50;;;;;;;;;;;;;;;20.47;78.32;101591.91;5075508;28;19920;-37
2022/06/27 09:55:18;;;;;;;;;;;;;;;20.59;77.65;101589.66;5075878;28;19916;-37
2022/06/27 09:57:43;;;;;;;;;;;;;;;20.74;77.56;101597.88;5107307;28;19913;-37
2022/06/27 10:00:10;;;;;;;;;;;;;;;20.86;76.73;101588.47;5075519;28;19920;-37
2022/06/27 10:02:36;;;;;;;;;;;;;;;20.93;75.86;101591.72;5075736;28;19917;-37
2022/06/27 10:05:01;;;;;;;;;;;;;;;20.83;72.75;101587.91;5075886;28;19913;-37
2022/06/27 10:07:27;;;;;;;;;;;;;;;20.75;73.64;101584.94;5076236;28;20323;-37
2022/06/27 10:09:53;;;;;;;;;;;;;;;20.70;73.47;101580.28;5075828;28;20356;-37
2022/06/27 10:12:28;;;;;;;;;;;;;;;20.70;74.34;101573.97;5075617;28;19912;-37
2022/06/27 10:15:12;;;;;;;;;;;;;;;20.74;75.12;101564.03;5074460;28;19966;-37
2022/06/27 10:17:41;;;;;;;;;;;;;;;20.88;75.27;101558.75;5075248;28;20364;-37
2022/06/27 10:20:08;;;;;;;;;;;;;;;21.01;74.63;101564.47;5074951;28;19947;-37
2022/06/27 10:22:33;;;;;;;;;;;;;;;21.14;74.72;101563.03;5074851;28;19912;-36
2022/06/27 10:25:17;;;;;;;;;;;;;;;21.30;74.72;101563.75;5075008;28;19957;-36
2022/06/27 10:27:42;;;;;;;;;;;;;;;21.46;74.38;101570.81;5074763;28;19913;-36
2022/06/27 10:30:31;;;;;;;;;;;;;;;21.48;69.52;101562.28;5074866;28;19912;-36
2022/06/27 10:32:56;;;;;;;;;;;;;;;21.44;67.54;101556.53;5074794;28;20289;-36
2022/06/27 10:35:24;;;;;;;;;;;;;;;21.43;68.71;101554.88;5074980;28;19919;-36
2022/06/27 10:37:49;;;;;;;;;;;;;;;21.49;69.22;101555.66;5075152;28;19912;-36
2022/06/27 10:40:20;;;;;;;;;;;;;;;21.54;70.34;101561.94;5075294;28;20039;-36
2022/06/27 10:42:55;;;;;;;;;;;;;;;21.53;70.08;101560.31;5075362;28;19965;-37
2022/06/27 10:45:20;;;;;;;;;;;;;;;21.50;69.44;101569.13;5075269;28;19962;-36
2022/06/27 10:47:49;;;;;;;;;;;;;;;21.39;67.57;101567.56;5075131;28;20067;-36
2022/06/27 10:50:16;;;;;;;;;;;;;;;21.39;70.02;101575.00;5075337;28;19913;-36
2022/06/27 10:52:41;;;;;;;;;;;;;;;21.36;69.92;101570.06;5075465;28;19974;-37
2022/06/27 10:55:26;;;;;;;;;;;;;;;21.26;69.38;101566.22;5074569;28;19912;-37
2022/06/27 10:57:53;;;;;;;;;;;;;;;21.26;69.99;101566.22;5074351;28;19920;-37
2022/06/27 11:00:37;;;;;;;;;;;;;;;21.26;70.21;101566.22;5074579;28;19912;-37
2022/06/27 11:03:02;;;;;;;;;;;;;;;21.19;68.15;101570.44;5074476;28;19927;-37
2022/06/27 11:05:28;;;;;;;;;;;;;;;21.11;70.12;101576.50;5074686;28;19912;-37
2022/06/27 11:07:54;;;;;;;;;;;;;;;21.07;70.52;101576.25;5074559;28;19912;-37
2022/06/27 11:10:20;;;;;;;;;;;;;;;21.02;69.85;101581.78;5074323;28;19913;-37
2022/06/27 11:12:46;;;;;;;;;;;;;;;20.96;70.82;101583.75;5074628;28;19917;-37
2022/06/27 11:15:11;;;;;;;;;;;;;;;20.91;69.67;101580.19;5074058;28;19987;-37
2022/06/27 11:17:41;;;;;;;;;;;;;;;20.89;70.76;101579.66;5074313;28;19912;-37
2022/06/27 11:20:07;;;;;;;;;;;;;;;20.89;70.13;101580.50;5074343;28;20004;-37
2022/06/27 11:22:32;;;;;;;;;;;;;;;20.89;70.98;101571.44;5074769;28;20268;-37
2022/06/27 11:24:57;;;;;;;;;;;;;;;20.85;68.91;101570.34;5073819;28;19912;-37
2022/06/27 11:27:22;;;;;;;;;;;;;;;20.89;70.35;101582.41;5073852;28;20352;-37
2022/06/27 11:32:35;;;;;;;;;;;;;;;20.88;69.78;101573.31;5073896;28;20003;-37
2022/06/27 11:35:00;;;;;;;;;;;;;;;20.90;70.00;101579.38;5074582;28;20352;-37
2022/06/27 11:37:28;;;;;;;;;;;;;;;20.89;69.01;101582.41;5073638;28;19999;-37
2022/06/27 11:39:58;;;;;;;;;;;;;;;20.88;69.63;101581.56;5073540;28;20257;-37
2022/06/27 11:42:28;;;;;;;;;;;;;;;20.88;70.00;101578.00;5074502;28;19912;-37
2022/06/27 11:45:06;;;;;;;;;;;;;;;20.86;70.20;101583.78;5073977;28;19917;-37
2022/06/27 11:47:34;;;;;;;;;;;;;;;20.83;69.48;101582.41;5073911;28;20284;-37
2022/06/27 11:50:03;;;;;;;;;;;;;;;20.82;70.11;101594.53;5074002;28;19920;-37
2022/06/27 11:52:36;;;;;;;;;;;;;;;20.87;71.04;101595.59;5073865;28;19912;-37
2022/06/27 11:55:06;;;;;;;;;;;;;;;20.98;71.22;101602.69;5073072;28;20462;-37
2022/06/27 11:57:32;;;;;;;;;;;;;;;21.05;70.39;101595.78;5073828;28;20300;-37
2022/06/27 11:59:58;;;;;;;;;;;;;;;21.14;70.26;101586.97;5073484;28;19919;-37
2022/06/27 12:02:25;;;;;;;;;;;;;;;21.15;69.68;101580.34;5073640;28;20449;-37
2022/06/27 12:05:00;;;;;;;;;;;;;;;21.11;68.02;101565.50;5073388;28;20337;-37
2022/06/27 12:07:26;;;;;;;;;;;;;;;21.07;68.90;101584.50;5073191;28;19920;-37
2022/06/27 12:09:52;;;;;;;;;;;;;;;21.02;69.18;101577.09;5073861;28;19912;-37
2022/06/27 12:12:25;;;;;;;;;;;;;;;20.97;68.81;101590.88;5073646;28;19920;-37
2022/06/27 12:14:51;;;;;;;;;;;;;;;20.92;69.58;101592.84;5073093;28;19935;-36
2022/06/27 12:17:17;;;;;;;;;;;;;;;20.75;69.70;101599.50;5074119;28;20337;-36
2022/06/27 12:19:42;;;;;;;;;;;;;;;20.58;70.39;101610.81;5073612;28;19913;-36
2022/06/27 12:22:09;;;;;;;;;;;;;;;20.41;70.86;101609.47;5073199;28;19912;-36
2022/06/27 12:24:34;;;;;;;;;;;;;;;20.17;71.24;101606.50;5074012;28;20264;-36
2022/06/27 12:27:00;;;;;;;;;;;;;;;19.92;71.83;101607.34;5073660;28;19919;-36
2022/06/27 12:29:25;;;;;;;;;;;;;;;19.68;72.67;101612.56;5073307;28;20349;-36
2022/06/27 12:31:50;;;;;;;;;;;;;;;19.42;73.84;101614.41;5073247;28;19939;-36
2022/06/27 12:34:16;;;;;;;;;;;;;;;19.21;73.68;101636.28;5073421;28;19912;-36
2022/06/27 12:36:41;;;;;;;;;;;;;;;19.02;73.93;101641.44;5073385;28;19940;-36